sensor_id;sensor_type;location;lat;lon;timestamp;temperature;humidity
51853;DHT22;37894;53.172;6.598;2023-07-28T00:01:36;17.90;99.90
51853;DHT22;37894;53.172;6.598;2023-07-28T00:04:01;17.90;99.90
51853;DHT22;37894;53.172;6.598;2023-07-28T00:06:32;18.00;99.90
51853;DHT22;37894;53.172;6.598;2023-07-28T00:08:58;18.00;99.90
51853;DHT22;37894;53.172;6.598;2023-07-28T00:11:24;17.90;99.90
51853;DHT22;37894;53.172;6.598;2023-07-28T00:13:50;17.90;99.90
51853;DHT22;37894;53.172;6.598;2023-07-28T00:16:15;17.80;99.90
51853;DHT22;37894;53.172;6.598;2023-07-28T00:18:41;18.00;99.90
51853;DHT22;37894;53.172;6.598;2023-07-28T00:21:07;17.90;99.90
51853;DHT22;37894;53.172;6.598;2023-07-28T00:23:33;17.90;99.90
51853;DHT22;37894;53.172;6.598;2023-07-28T00:25:58;18.00;99.90
51853;DHT22;37894;53.172;6.598;2023-07-28T00:28:24;17.90;99.90
51853;DHT22;37894;53.172;6.598;2023-07-28T00:30:50;18.00;99.90
51853;DHT22;37894;53.172;6.598;2023-07-28T00:33:16;17.90;99.90
51853;DHT22;37894;53.172;6.598;2023-07-28T00:35:42;18.00;99.90
51853;DHT22;37894;53.172;6.598;2023-07-28T00:38:09;17.90;99.90
51853;DHT22;37894;53.172;6.598;2023-07-28T00:40:35;17.90;99.90
51853;DHT22;37894;53.172;6.598;2023-07-28T00:43:02;17.90;99.90
51853;DHT22;37894;53.172;6.598;2023-07-28T00:45:28;17.90;99.90
51853;DHT22;37894;53.172;6.598;2023-07-28T00:47:55;18.00;99.90
51853;DHT22;37894;53.172;6.598;2023-07-28T00:50:24;18.00;99.90
51853;DHT22;37894;53.172;6.598;2023-07-28T00:52:50;18.00;99.90
51853;DHT22;37894;53.172;6.598;2023-07-28T00:55:16;18.00;99.90
51853;DHT22;37894;53.172;6.598;2023-07-28T00:57:42;17.90;99.90
51853;DHT22;37894;53.172;6.598;2023-07-28T01:00:09;18.00;99.90
51853;DHT22;37894;53.172;6.598;2023-07-28T01:02:35;17.90;99.90
51853;DHT22;37894;53.172;6.598;2023-07-28T01:05:01;17.90;99.90
51853;DHT22;37894;53.172;6.598;2023-07-28T01:07:49;17.90;99.90
51853;DHT22;37894;53.172;6.598;2023-07-28T01:10:26;17.90;99.90
51853;DHT22;37894;53.172;6.598;2023-07-28T01:12:52;17.90;99.90
51853;DHT22;37894;53.172;6.598;2023-07-28T01:15:17;17.90;99.90
51853;DHT22;37894;53.172;6.598;2023-07-28T01:17:43;17.90;99.90
51853;DHT22;37894;53.172;6.598;2023-07-28T01:20:10;17.90;99.90
51853;DHT22;37894;53.172;6.598;2023-07-28T01:27:56;17.90;99.90
51853;DHT22;37894;53.172;6.598;2023-07-28T01:30:23;17.90;99.90
51853;DHT22;37894;53.172;6.598;2023-07-28T01:32:53;17.90;99.90
51853;DHT22;37894;53.172;6.598;2023-07-28T01:35:19;18.00;99.90
51853;DHT22;37894;53.172;6.598;2023-07-28T01:37:45;17.90;99.90
51853;DHT22;37894;53.172;6.598;2023-07-28T01:40:19;17.90;99.90
51853;DHT22;37894;53.172;6.598;2023-07-28T01:42:45;17.90;99.90
51853;DHT22;37894;53.172;6.598;2023-07-28T01:45:11;17.90;99.90
51853;DHT22;37894;53.172;6.598;2023-07-28T01:47:36;17.90;99.90
51853;DHT22;37894;53.172;6.598;2023-07-28T01:50:02;17.90;99.90
51853;DHT22;37894;53.172;6.598;2023-07-28T01:52:28;17.90;99.90
51853;DHT22;37894;53.172;6.598;2023-07-28T01:54:54;17.90;99.90
51853;DHT22;37894;53.172;6.598;2023-07-28T01:57:19;17.90;99.90
51853;DHT22;37894;53.172;6.598;2023-07-28T01:59:45;17.90;99.90
51853;DHT22;37894;53.172;6.598;2023-07-28T02:02:11;17.90;99.90
51853;DHT22;37894;53.172;6.598;2023-07-28T02:04:36;17.90;99.90
51853;DHT22;37894;53.172;6.598;2023-07-28T02:07:02;17.90;99.90
51853;DHT22;37894;53.172;6.598;2023-07-28T02:09:28;17.90;99.90
51853;DHT22;37894;53.172;6.598;2023-07-28T02:11:53;17.90;99.90
51853;DHT22;37894;53.172;6.598;2023-07-28T02:14:19;17.90;99.90
51853;DHT22;37894;53.172;6.598;2023-07-28T02:16:45;17.90;99.90
51853;DHT22;37894;53.172;6.598;2023-07-28T02:19:10;19.40;99.90
51853;DHT22;37894;53.172;6.598;2023-07-28T02:21:36;17.90;99.90
51853;DHT22;37894;53.172;6.598;2023-07-28T02:24:02;17.90;99.90
51853;DHT22;37894;53.172;6.598;2023-07-28T02:26:28;17.90;99.90
51853;DHT22;37894;53.172;6.598;2023-07-28T02:28:53;17.90;99.90
51853;DHT22;37894;53.172;6.598;2023-07-28T02:31:19;17.90;99.90
51853;DHT22;37894;53.172;6.598;2023-07-28T02:33:45;17.90;99.90
51853;DHT22;37894;53.172;6.598;2023-07-28T02:36:10;17.90;99.90
51853;DHT22;37894;53.172;6.598;2023-07-28T02:38:36;17.90;99.90
51853;DHT22;37894;53.172;6.598;2023-07-28T02:41:02;17.90;99.90
51853;DHT22;37894;53.172;6.598;2023-07-28T02:43:29;17.90;99.90
51853;DHT22;37894;53.172;6.598;2023-07-28T02:45:57;17.90;99.90
51853;DHT22;37894;53.172;6.598;2023-07-28T02:48:23;17.90;99.90
51853;DHT22;37894;53.172;6.598;2023-07-28T02:50:52;17.90;99.90
51853;DHT22;37894;53.172;6.598;2023-07-28T02:53:18;17.90;99.90
51853;DHT22;37894;53.172;6.598;2023-07-28T02:55:44;17.90;99.90
51853;DHT22;37894;53.172;6.598;2023-07-28T02:58:11;17.90;99.90
51853;DHT22;37894;53.172;6.598;2023-07-28T03:00:37;17.90;99.90
51853;DHT22;37894;53.172;6.598;2023-07-28T03:03:04;17.90;99.90
51853;DHT22;37894;53.172;6.598;2023-07-28T03:05:31;17.90;99.90
51853;DHT22;37894;53.172;6.598;2023-07-28T03:07:57;17.90;99.90
51853;DHT22;37894;53.172;6.598;2023-07-28T03:10:23;17.90;99.90
51853;DHT22;37894;53.172;6.598;2023-07-28T03:12:48;17.90;99.90
51853;DHT22;37894;53.172;6.598;2023-07-28T03:15:14;17.90;99.90
51853;DHT22;37894;53.172;6.598;2023-07-28T03:17:40;17.90;99.90
51853;DHT22;37894;53.172;6.598;2023-07-28T03:20:06;17.90;99.90
51853;DHT22;37894;53.172;6.598;2023-07-28T03:22:32;17.90;99.90
51853;DHT22;37894;53.172;6.598;2023-07-28T03:24:57;17.90;99.90
51853;DHT22;37894;53.172;6.598;2023-07-28T03:27:23;17.90;99.90
51853;DHT22;37894;53.172;6.598;2023-07-28T03:29:50;17.80;99.90
51853;DHT22;37894;53.172;6.598;2023-07-28T03:32:16;17.90;99.90
51853;DHT22;37894;53.172;6.598;2023-07-28T03:34:42;17.80;99.90
51853;DHT22;37894;53.172;6.598;2023-07-28T03:37:07;17.90;99.90
51853;DHT22;37894;53.172;6.598;2023-07-28T03:39:34;17.80;99.90
51853;DHT22;37894;53.172;6.598;2023-07-28T03:42:00;17.80;99.90
51853;DHT22;37894;53.172;6.598;2023-07-28T03:44:26;17.90;99.90
51853;DHT22;37894;53.172;6.598;2023-07-28T03:46:51;17.90;99.90
51853;DHT22;37894;53.172;6.598;2023-07-28T03:49:17;17.80;99.90
51853;DHT22;37894;53.172;6.598;2023-07-28T03:51:43;17.90;99.90
51853;DHT22;37894;53.172;6.598;2023-07-28T03:54:09;17.80;99.90
51853;DHT22;37894;53.172;6.598;2023-07-28T03:56:34;17.80;99.90
51853;DHT22;37894;53.172;6.598;2023-07-28T03:59:00;17.80;99.90
51853;DHT22;37894;53.172;6.598;2023-07-28T04:01:26;17.80;99.90
51853;DHT22;37894;53.172;6.598;2023-07-28T04:03:51;17.80;99.90
51853;DHT22;37894;53.172;6.598;2023-07-28T04:06:17;17.80;99.90
51853;DHT22;37894;53.172;6.598;2023-07-28T04:08:43;17.80;99.90
51853;DHT22;37894;53.172;6.598;2023-07-28T04:11:08;17.80;99.90
51853;DHT22;37894;53.172;6.598;2023-07-28T04:13:35;17.80;99.90
51853;DHT22;37894;53.172;6.598;2023-07-28T04:16:01;17.30;99.90
51853;DHT22;37894;53.172;6.598;2023-07-28T04:18:27;17.80;99.90
51853;DHT22;37894;53.172;6.598;2023-07-28T04:20:53;17.80;99.90
51853;DHT22;37894;53.172;6.598;2023-07-28T04:23:19;17.80;99.90
51853;DHT22;37894;53.172;6.598;2023-07-28T04:25:44;17.80;99.90
51853;DHT22;37894;53.172;6.598;2023-07-28T04:28:10;17.90;99.90
51853;DHT22;37894;53.172;6.598;2023-07-28T04:30:36;17.90;99.90
51853;DHT22;37894;53.172;6.598;2023-07-28T04:33:01;17.90;99.90
51853;DHT22;37894;53.172;6.598;2023-07-28T04:35:30;17.90;99.90
51853;DHT22;37894;53.172;6.598;2023-07-28T04:37:55;17.90;99.90
51853;DHT22;37894;53.172;6.598;2023-07-28T04:40:21;17.90;99.90
51853;DHT22;37894;53.172;6.598;2023-07-28T04:42:47;17.90;99.90
51853;DHT22;37894;53.172;6.598;2023-07-28T04:45:14;18.00;99.90
51853;DHT22;37894;53.172;6.598;2023-07-28T04:47:40;17.90;99.90
51853;DHT22;37894;53.172;6.598;2023-07-28T04:50:06;18.00;99.90
51853;DHT22;37894;53.172;6.598;2023-07-28T04:52:31;17.90;99.90
51853;DHT22;37894;53.172;6.598;2023-07-28T04:54:57;18.00;99.90
51853;DHT22;37894;53.172;6.598;2023-07-28T04:57:23;18.00;99.90
51853;DHT22;37894;53.172;6.598;2023-07-28T04:59:48;18.00;99.90
51853;DHT22;37894;53.172;6.598;2023-07-28T05:02:14;18.00;99.90
51853;DHT22;37894;53.172;6.598;2023-07-28T05:04:40;18.00;99.90
51853;DHT22;37894;53.172;6.598;2023-07-28T05:07:05;18.00;99.90
51853;DHT22;37894;53.172;6.598;2023-07-28T05:09:31;18.00;99.90
51853;DHT22;37894;53.172;6.598;2023-07-28T05:11:57;18.00;99.90
51853;DHT22;37894;53.172;6.598;2023-07-28T05:14:22;18.10;99.90
51853;DHT22;37894;53.172;6.598;2023-07-28T05:16:48;18.10;99.90
51853;DHT22;37894;53.172;6.598;2023-07-28T05:19:14;18.10;99.90
51853;DHT22;37894;53.172;6.598;2023-07-28T05:21:40;18.10;99.90
51853;DHT22;37894;53.172;6.598;2023-07-28T05:24:05;18.10;99.90
51853;DHT22;37894;53.172;6.598;2023-07-28T05:26:31;18.10;99.90
51853;DHT22;37894;53.172;6.598;2023-07-28T05:28:56;18.10;99.90
51853;DHT22;37894;53.172;6.598;2023-07-28T05:31:22;18.10;99.90
51853;DHT22;37894;53.172;6.598;2023-07-28T05:33:48;18.10;99.90
51853;DHT22;37894;53.172;6.598;2023-07-28T05:36:14;18.10;99.90
51853;DHT22;37894;53.172;6.598;2023-07-28T05:38:40;18.10;99.90
51853;DHT22;37894;53.172;6.598;2023-07-28T05:41:06;18.10;99.90
51853;DHT22;37894;53.172;6.598;2023-07-28T05:43:33;18.10;99.90
51853;DHT22;37894;53.172;6.598;2023-07-28T05:45:59;18.20;99.90
51853;DHT22;37894;53.172;6.598;2023-07-28T05:48:25;18.20;99.90
51853;DHT22;37894;53.172;6.598;2023-07-28T05:50:51;18.20;99.90
51853;DHT22;37894;53.172;6.598;2023-07-28T05:53:22;18.30;99.90
51853;DHT22;37894;53.172;6.598;2023-07-28T05:55:48;18.30;99.90
51853;DHT22;37894;53.172;6.598;2023-07-28T05:58:17;18.30;99.90
51853;DHT22;37894;53.172;6.598;2023-07-28T06:00:42;18.40;99.90
51853;DHT22;37894;53.172;6.598;2023-07-28T06:03:10;18.40;99.90
51853;DHT22;37894;53.172;6.598;2023-07-28T06:05:41;18.40;99.90
51853;DHT22;37894;53.172;6.598;2023-07-28T06:08:08;18.40;99.90
51853;DHT22;37894;53.172;6.598;2023-07-28T06:10:34;18.40;99.90
51853;DHT22;37894;53.172;6.598;2023-07-28T06:13:00;18.40;99.90
51853;DHT22;37894;53.172;6.598;2023-07-28T06:15:26;18.40;99.90
51853;DHT22;37894;53.172;6.598;2023-07-28T06:17:51;18.40;99.90
51853;DHT22;37894;53.172;6.598;2023-07-28T06:20:17;18.50;99.90
51853;DHT22;37894;53.172;6.598;2023-07-28T06:22:43;18.50;99.90
51853;DHT22;37894;53.172;6.598;2023-07-28T06:25:09;18.50;99.90
51853;DHT22;37894;53.172;6.598;2023-07-28T06:27:34;18.50;99.90
51853;DHT22;37894;53.172;6.598;2023-07-28T06:30:01;18.50;99.90
51853;DHT22;37894;53.172;6.598;2023-07-28T06:32:26;18.50;99.90
51853;DHT22;37894;53.172;6.598;2023-07-28T06:34:54;18.50;99.90
51853;DHT22;37894;53.172;6.598;2023-07-28T06:37:19;18.50;99.90
51853;DHT22;37894;53.172;6.598;2023-07-28T06:39:45;18.60;99.90
51853;DHT22;37894;53.172;6.598;2023-07-28T06:42:11;18.50;99.90
51853;DHT22;37894;53.172;6.598;2023-07-28T06:44:37;18.60;99.90
51853;DHT22;37894;53.172;6.598;2023-07-28T06:47:03;18.60;99.90
51853;DHT22;37894;53.172;6.598;2023-07-28T06:49:29;18.60;99.90
51853;DHT22;37894;53.172;6.598;2023-07-28T06:51:54;18.70;99.90
51853;DHT22;37894;53.172;6.598;2023-07-28T06:54:20;18.70;99.90
51853;DHT22;37894;53.172;6.598;2023-07-28T06:56:46;18.80;99.90
51853;DHT22;37894;53.172;6.598;2023-07-28T06:59:11;18.80;99.90
51853;DHT22;37894;53.172;6.598;2023-07-28T07:01:37;18.90;99.90
51853;DHT22;37894;53.172;6.598;2023-07-28T07:04:03;18.90;99.90
51853;DHT22;37894;53.172;6.598;2023-07-28T07:06:30;19.00;99.90
51853;DHT22;37894;53.172;6.598;2023-07-28T07:08:57;19.10;99.90
51853;DHT22;37894;53.172;6.598;2023-07-28T07:11:22;19.20;99.90
51853;DHT22;37894;53.172;6.598;2023-07-28T07:13:48;19.20;99.90
51853;DHT22;37894;53.172;6.598;2023-07-28T07:16:17;19.30;99.90
51853;DHT22;37894;53.172;6.598;2023-07-28T07:18:43;19.30;99.90
51853;DHT22;37894;53.172;6.598;2023-07-28T07:21:09;19.40;99.90
51853;DHT22;37894;53.172;6.598;2023-07-28T07:23:36;19.40;99.90
51853;DHT22;37894;53.172;6.598;2023-07-28T07:26:02;19.40;99.90
51853;DHT22;37894;53.172;6.598;2023-07-28T07:28:28;19.40;99.90
51853;DHT22;37894;53.172;6.598;2023-07-28T07:30:54;19.40;99.90
51853;DHT22;37894;53.172;6.598;2023-07-28T07:33:20;19.40;99.90
51853;DHT22;37894;53.172;6.598;2023-07-28T07:35:46;19.40;99.90
51853;DHT22;37894;53.172;6.598;2023-07-28T07:38:12;19.40;99.90
51853;DHT22;37894;53.172;6.598;2023-07-28T07:40:38;19.40;99.90
51853;DHT22;37894;53.172;6.598;2023-07-28T07:43:04;19.40;99.90
51853;DHT22;37894;53.172;6.598;2023-07-28T07:45:30;19.40;99.90
51853;DHT22;37894;53.172;6.598;2023-07-28T07:47:56;19.40;99.90
51853;DHT22;37894;53.172;6.598;2023-07-28T07:50:22;19.40;99.90
51853;DHT22;37894;53.172;6.598;2023-07-28T07:52:48;19.40;99.90
51853;DHT22;37894;53.172;6.598;2023-07-28T07:55:14;19.40;99.90
51853;DHT22;37894;53.172;6.598;2023-07-28T07:57:40;19.50;99.90
51853;DHT22;37894;53.172;6.598;2023-07-28T08:00:07;19.50;99.90
51853;DHT22;37894;53.172;6.598;2023-07-28T08:02:34;19.60;99.90
51853;DHT22;37894;53.172;6.598;2023-07-28T08:04:59;19.60;99.90
51853;DHT22;37894;53.172;6.598;2023-07-28T08:07:25;19.60;99.90
51853;DHT22;37894;53.172;6.598;2023-07-28T08:09:51;19.60;99.90
51853;DHT22;37894;53.172;6.598;2023-07-28T08:12:17;19.60;99.90
51853;DHT22;37894;53.172;6.598;2023-07-28T08:14:43;19.60;99.90
51853;DHT22;37894;53.172;6.598;2023-07-28T08:17:09;19.70;99.90
51853;DHT22;37894;53.172;6.598;2023-07-28T08:19:35;19.80;99.90
51853;DHT22;37894;53.172;6.598;2023-07-28T08:22:02;19.90;99.90
51853;DHT22;37894;53.172;6.598;2023-07-28T08:24:29;20.00;99.90
51853;DHT22;37894;53.172;6.598;2023-07-28T08:26:55;20.00;99.90
51853;DHT22;37894;53.172;6.598;2023-07-28T08:29:20;20.00;99.90
51853;DHT22;37894;53.172;6.598;2023-07-28T08:31:46;20.00;99.90
51853;DHT22;37894;53.172;6.598;2023-07-28T08:34:12;20.00;99.90
51853;DHT22;37894;53.172;6.598;2023-07-28T08:36:38;20.00;99.90
51853;DHT22;37894;53.172;6.598;2023-07-28T08:39:05;20.00;99.90
51853;DHT22;37894;53.172;6.598;2023-07-28T08:41:30;20.00;99.90
51853;DHT22;37894;53.172;6.598;2023-07-28T08:43:56;20.10;99.90
51853;DHT22;37894;53.172;6.598;2023-07-28T08:46:22;20.20;99.90
51853;DHT22;37894;53.172;6.598;2023-07-28T08:48:49;20.30;99.90
51853;DHT22;37894;53.172;6.598;2023-07-28T08:51:15;20.40;99.90
51853;DHT22;37894;53.172;6.598;2023-07-28T08:53:41;20.50;99.90
51853;DHT22;37894;53.172;6.598;2023-07-28T08:56:06;20.60;99.90
51853;DHT22;37894;53.172;6.598;2023-07-28T08:58:33;20.60;99.90
51853;DHT22;37894;53.172;6.598;2023-07-28T09:00:59;20.70;99.90
51853;DHT22;37894;53.172;6.598;2023-07-28T09:03:29;20.80;99.90
51853;DHT22;37894;53.172;6.598;2023-07-28T09:06:00;20.90;99.90
51853;DHT22;37894;53.172;6.598;2023-07-28T09:08:27;21.00;99.90
51853;DHT22;37894;53.172;6.598;2023-07-28T09:10:53;21.00;99.90
51853;DHT22;37894;53.172;6.598;2023-07-28T09:13:20;21.00;99.90
51853;DHT22;37894;53.172;6.598;2023-07-28T09:15:46;21.10;99.90
51853;DHT22;37894;53.172;6.598;2023-07-28T09:18:14;21.30;99.90
51853;DHT22;37894;53.172;6.598;2023-07-28T09:20:41;21.50;99.90
51853;DHT22;37894;53.172;6.598;2023-07-28T09:23:08;21.60;99.90
51853;DHT22;37894;53.172;6.598;2023-07-28T09:25:35;21.90;99.90
51853;DHT22;37894;53.172;6.598;2023-07-28T09:28:01;22.00;99.90
51853;DHT22;37894;53.172;6.598;2023-07-28T09:30:46;22.20;99.90
51853;DHT22;37894;53.172;6.598;2023-07-28T09:33:12;22.30;99.90
51853;DHT22;37894;53.172;6.598;2023-07-28T09:35:48;22.30;99.90
51853;DHT22;37894;53.172;6.598;2023-07-28T09:38:14;22.30;99.90
51853;DHT22;37894;53.172;6.598;2023-07-28T09:40:42;22.20;99.90
51853;DHT22;37894;53.172;6.598;2023-07-28T09:43:08;22.20;99.90
51853;DHT22;37894;53.172;6.598;2023-07-28T09:45:35;22.20;99.90
51853;DHT22;37894;53.172;6.598;2023-07-28T09:48:02;22.20;99.90
51853;DHT22;37894;53.172;6.598;2023-07-28T09:50:32;22.10;99.90
51853;DHT22;37894;53.172;6.598;2023-07-28T09:53:02;22.10;99.90
51853;DHT22;37894;53.172;6.598;2023-07-28T09:55:28;22.10;99.90
51853;DHT22;37894;53.172;6.598;2023-07-28T09:57:56;22.10;99.90
51853;DHT22;37894;53.172;6.598;2023-07-28T10:00:23;22.20;99.90
51853;DHT22;37894;53.172;6.598;2023-07-28T10:02:49;22.40;99.90
51853;DHT22;37894;53.172;6.598;2023-07-28T10:05:18;22.60;99.90
51853;DHT22;37894;53.172;6.598;2023-07-28T10:07:47;22.70;99.90
51853;DHT22;37894;53.172;6.598;2023-07-28T10:10:14;22.70;99.90
51853;DHT22;37894;53.172;6.598;2023-07-28T10:12:41;22.60;99.90
51853;DHT22;37894;53.172;6.598;2023-07-28T10:15:15;22.50;99.90
51853;DHT22;37894;53.172;6.598;2023-07-28T10:17:50;22.50;99.90
51853;DHT22;37894;53.172;6.598;2023-07-28T10:20:31;22.50;99.90
51853;DHT22;37894;53.172;6.598;2023-07-28T10:23:14;22.40;99.90
51853;DHT22;37894;53.172;6.598;2023-07-28T10:25:42;22.40;99.90
51853;DHT22;37894;53.172;6.598;2023-07-28T10:28:28;22.30;99.90
51853;DHT22;37894;53.172;6.598;2023-07-28T10:30:57;22.20;99.90
51853;DHT22;37894;53.172;6.598;2023-07-28T10:33:34;22.20;99.90
51853;DHT22;37894;53.172;6.598;2023-07-28T10:38:37;22.50;99.90
51853;DHT22;37894;53.172;6.598;2023-07-28T10:41:14;22.60;99.90
51853;DHT22;37894;53.172;6.598;2023-07-28T10:43:41;22.70;99.90
51853;DHT22;37894;53.172;6.598;2023-07-28T10:46:15;22.70;99.90
51853;DHT22;37894;53.172;6.598;2023-07-28T10:48:46;22.70;99.90
51853;DHT22;37894;53.172;6.598;2023-07-28T10:51:22;22.60;99.90
51853;DHT22;37894;53.172;6.598;2023-07-28T10:53:55;22.60;99.90
51853;DHT22;37894;53.172;6.598;2023-07-28T10:56:21;22.60;99.90
51853;DHT22;37894;53.172;6.598;2023-07-28T10:59:04;22.70;99.90
51853;DHT22;37894;53.172;6.598;2023-07-28T11:01:39;22.90;99.90
51853;DHT22;37894;53.172;6.598;2023-07-28T11:04:21;23.00;99.90
51853;DHT22;37894;53.172;6.598;2023-07-28T11:06:50;23.10;99.90
51853;DHT22;37894;53.172;6.598;2023-07-28T11:09:18;23.30;99.90
51853;DHT22;37894;53.172;6.598;2023-07-28T11:11:45;23.40;99.90
51853;DHT22;37894;53.172;6.598;2023-07-28T11:14:11;23.70;99.90
51853;DHT22;37894;53.172;6.598;2023-07-28T11:16:38;23.70;99.90
51853;DHT22;37894;53.172;6.598;2023-07-28T11:19:08;23.60;99.90
51853;DHT22;37894;53.172;6.598;2023-07-28T11:21:40;23.60;99.90
51853;DHT22;37894;53.172;6.598;2023-07-28T11:24:10;23.60;99.90
51853;DHT22;37894;53.172;6.598;2023-07-28T11:26:37;23.70;99.90
51853;DHT22;37894;53.172;6.598;2023-07-28T11:29:03;23.90;99.90
51853;DHT22;37894;53.172;6.598;2023-07-28T11:31:29;24.10;99.90
51853;DHT22;37894;53.172;6.598;2023-07-28T11:33:55;24.30;99.90
51853;DHT22;37894;53.172;6.598;2023-07-28T11:36:28;24.50;99.90
51853;DHT22;37894;53.172;6.598;2023-07-28T11:38:58;24.60;99.90
51853;DHT22;37894;53.172;6.598;2023-07-28T11:41:24;24.70;99.90
51853;DHT22;37894;53.172;6.598;2023-07-28T11:43:51;24.90;99.90
51853;DHT22;37894;53.172;6.598;2023-07-28T11:49:15;25.20;99.90
51853;DHT22;37894;53.172;6.598;2023-07-28T11:51:52;25.30;99.90
51853;DHT22;37894;53.172;6.598;2023-07-28T11:54:21;25.40;99.90
51853;DHT22;37894;53.172;6.598;2023-07-28T11:56:49;25.50;99.90
51853;DHT22;37894;53.172;6.598;2023-07-28T11:59:17;25.40;99.90
51853;DHT22;37894;53.172;6.598;2023-07-28T12:01:57;25.30;99.90
51853;DHT22;37894;53.172;6.598;2023-07-28T12:04:40;25.20;99.90
51853;DHT22;37894;53.172;6.598;2023-07-28T12:07:14;25.00;99.90
51853;DHT22;37894;53.172;6.598;2023-07-28T12:12:22;24.80;99.90
51853;DHT22;37894;53.172;6.598;2023-07-28T12:14:49;24.90;99.90
51853;DHT22;37894;53.172;6.598;2023-07-28T12:17:24;24.90;99.90
51853;DHT22;37894;53.172;6.598;2023-07-28T12:20:06;25.10;99.90
51853;DHT22;37894;53.172;6.598;2023-07-28T12:22:43;25.10;99.90
51853;DHT22;37894;53.172;6.598;2023-07-28T12:25:09;25.20;99.90
51853;DHT22;37894;53.172;6.598;2023-07-28T12:27:35;25.30;99.90
51853;DHT22;37894;53.172;6.598;2023-07-28T12:30:02;25.40;99.90
51853;DHT22;37894;53.172;6.598;2023-07-28T12:32:28;25.50;99.90
51853;DHT22;37894;53.172;6.598;2023-07-28T12:34:54;25.40;99.90
51853;DHT22;37894;53.172;6.598;2023-07-28T12:37:20;25.30;99.90
51853;DHT22;37894;53.172;6.598;2023-07-28T12:39:47;25.40;99.90
51853;DHT22;37894;53.172;6.598;2023-07-28T12:42:13;25.50;99.90
51853;DHT22;37894;53.172;6.598;2023-07-28T12:44:41;25.60;99.90
51853;DHT22;37894;53.172;6.598;2023-07-28T12:47:07;25.50;99.90
51853;DHT22;37894;53.172;6.598;2023-07-28T12:49:32;25.40;99.90
51853;DHT22;37894;53.172;6.598;2023-07-28T12:52:01;25.30;99.90
51853;DHT22;37894;53.172;6.598;2023-07-28T12:54:27;25.30;99.90
51853;DHT22;37894;53.172;6.598;2023-07-28T12:56:54;25.30;99.90
51853;DHT22;37894;53.172;6.598;2023-07-28T12:59:20;25.20;99.90
51853;DHT22;37894;53.172;6.598;2023-07-28T13:01:46;25.10;99.90
51853;DHT22;37894;53.172;6.598;2023-07-28T13:04:12;25.20;99.90
51853;DHT22;37894;53.172;6.598;2023-07-28T13:06:38;25.30;99.90
51853;DHT22;37894;53.172;6.598;2023-07-28T13:09:03;25.60;99.90
51853;DHT22;37894;53.172;6.598;2023-07-28T13:11:30;25.90;99.90
51853;DHT22;37894;53.172;6.598;2023-07-28T13:13:55;26.20;99.90
51853;DHT22;37894;53.172;6.598;2023-07-28T13:16:21;26.30;99.90
51853;DHT22;37894;53.172;6.598;2023-07-28T13:18:47;26.30;99.90
51853;DHT22;37894;53.172;6.598;2023-07-28T13:21:13;26.40;99.90
51853;DHT22;37894;53.172;6.598;2023-07-28T13:23:39;26.50;99.90
51853;DHT22;37894;53.172;6.598;2023-07-28T13:26:06;26.60;99.90
51853;DHT22;37894;53.172;6.598;2023-07-28T13:28:32;26.50;99.90
51853;DHT22;37894;53.172;6.598;2023-07-28T13:30:58;26.60;99.90
51853;DHT22;37894;53.172;6.598;2023-07-28T13:33:24;26.80;99.90
51853;DHT22;37894;53.172;6.598;2023-07-28T13:35:50;26.90;99.90
51853;DHT22;37894;53.172;6.598;2023-07-28T13:38:15;27.00;99.90
51853;DHT22;37894;53.172;6.598;2023-07-28T13:40:41;27.20;99.90
51853;DHT22;37894;53.172;6.598;2023-07-28T13:43:07;27.20;99.90
51853;DHT22;37894;53.172;6.598;2023-07-28T13:45:32;26.90;99.90
51853;DHT22;37894;53.172;6.598;2023-07-28T13:47:58;26.70;99.90
51853;DHT22;37894;53.172;6.598;2023-07-28T13:50:24;26.50;99.90
51853;DHT22;37894;53.172;6.598;2023-07-28T13:52:49;26.30;99.90
51853;DHT22;37894;53.172;6.598;2023-07-28T13:55:15;26.20;99.90
51853;DHT22;37894;53.172;6.598;2023-07-28T13:57:40;25.90;99.90
51853;DHT22;37894;53.172;6.598;2023-07-28T14:00:07;25.80;99.90
51853;DHT22;37894;53.172;6.598;2023-07-28T14:02:35;25.70;99.90
51853;DHT22;37894;53.172;6.598;2023-07-28T14:05:02;25.70;99.90
51853;DHT22;37894;53.172;6.598;2023-07-28T14:07:28;25.60;99.90
51853;DHT22;37894;53.172;6.598;2023-07-28T14:09:53;25.50;99.90
51853;DHT22;37894;53.172;6.598;2023-07-28T14:12:19;25.50;99.90
51853;DHT22;37894;53.172;6.598;2023-07-28T14:14:45;25.50;99.90
51853;DHT22;37894;53.172;6.598;2023-07-28T14:17:10;25.40;99.90
51853;DHT22;37894;53.172;6.598;2023-07-28T14:19:39;25.40;99.90
51853;DHT22;37894;53.172;6.598;2023-07-28T14:22:05;25.30;99.90
51853;DHT22;37894;53.172;6.598;2023-07-28T14:24:31;25.40;99.90
51853;DHT22;37894;53.172;6.598;2023-07-28T14:26:57;25.50;99.90
51853;DHT22;37894;53.172;6.598;2023-07-28T14:29:22;25.50;99.90
51853;DHT22;37894;53.172;6.598;2023-07-28T14:31:49;25.50;99.90
51853;DHT22;37894;53.172;6.598;2023-07-28T14:34:14;25.60;99.90
51853;DHT22;37894;53.172;6.598;2023-07-28T14:36:40;25.60;99.90
51853;DHT22;37894;53.172;6.598;2023-07-28T14:39:06;25.60;99.90
51853;DHT22;37894;53.172;6.598;2023-07-28T14:41:32;25.50;99.90
51853;DHT22;37894;53.172;6.598;2023-07-28T14:43:58;25.50;99.90
51853;DHT22;37894;53.172;6.598;2023-07-28T14:46:24;25.40;99.90
51853;DHT22;37894;53.172;6.598;2023-07-28T14:48:54;25.30;99.90
51853;DHT22;37894;53.172;6.598;2023-07-28T14:51:20;25.20;99.90
51853;DHT22;37894;53.172;6.598;2023-07-28T14:53:46;25.10;99.90
51853;DHT22;37894;53.172;6.598;2023-07-28T14:56:13;25.20;99.90
51853;DHT22;37894;53.172;6.598;2023-07-28T14:58:40;25.30;99.90
51853;DHT22;37894;53.172;6.598;2023-07-28T15:01:12;25.20;99.90
51853;DHT22;37894;53.172;6.598;2023-07-28T15:03:38;25.10;99.90
51853;DHT22;37894;53.172;6.598;2023-07-28T15:06:07;25.00;99.90
51853;DHT22;37894;53.172;6.598;2023-07-28T15:08:38;24.90;99.90
51853;DHT22;37894;53.172;6.598;2023-07-28T15:11:08;24.90;99.90
51853;DHT22;37894;53.172;6.598;2023-07-28T15:13:34;24.90;99.90
51853;DHT22;37894;53.172;6.598;2023-07-28T15:16:00;24.90;99.90
51853;DHT22;37894;53.172;6.598;2023-07-28T15:18:25;25.00;99.90
51853;DHT22;37894;53.172;6.598;2023-07-28T15:20:51;25.00;99.90
51853;DHT22;37894;53.172;6.598;2023-07-28T15:23:17;24.90;99.90
51853;DHT22;37894;53.172;6.598;2023-07-28T15:25:43;24.90;99.90
51853;DHT22;37894;53.172;6.598;2023-07-28T15:28:12;24.90;99.90
51853;DHT22;37894;53.172;6.598;2023-07-28T15:30:38;24.80;99.90
51853;DHT22;37894;53.172;6.598;2023-07-28T15:33:04;24.80;99.90
51853;DHT22;37894;53.172;6.598;2023-07-28T15:35:30;24.80;99.90
51853;DHT22;37894;53.172;6.598;2023-07-28T15:37:55;24.80;99.90
51853;DHT22;37894;53.172;6.598;2023-07-28T15:40:21;24.80;99.90
51853;DHT22;37894;53.172;6.598;2023-07-28T15:42:47;24.70;99.90